Moycullen, Ireland
Current Conditions -  °F | °C
As of 7:00 PM on Wednesday 17 Dec 2014 (Local Time) from EIKN Reporting Station
Light Rain Light Rain  
Wind Chill: 50°   Ceiling: 200
Heat Index: 50°   Visibility: 1.2mi
Dew Point: 50°   Wind: 14mph
Humidity: 100%   Direction: 240°WSW
Pressure: 29.62"   Gusts: NA
Location:  53.34°N, 9.18°W
Report Text: EIKN 171900Z 24012KT 2000 -RADZ BKN002 OVC006 10/10 Q1003 TEMPO 0600
Loading
Personal Weather Stations






























Interactive Weather Map New forecast layout! Learn more

10-Day Weather Forecast

Advertisements
Track Severe Weather on mobile